Time,TemperatureF,DewpointF,PressureIn,WindDirection,WindDirectionDegrees,WindSpeedMPH,WindSpeedGustMPH,Humidity,HourlyPrecipIn,Conditions,Clouds,dailyrainin,SoftwareType,DateUTC
2013-07-21 00:00:00,77.0,69.0,-100.00,WNW,292,5.0,20.0,76,0.00,,,-99.99,,2013-07-21 04:00:00,
2013-07-21 00:33:00,77.0,69.0,-100.00,WNW,292,5.0,20.0,76,0.00,,,-99.99,,2013-07-21 04:33:00,
2013-07-21 00:43:00,77.0,69.0,-100.00,WNW,292,5.0,20.0,76,0.00,,,-99.99,,2013-07-21 04:43:00,
2013-07-21 00:53:00,77.0,69.0,-100.00,WNW,292,5.0,20.0,76,0.00,,,-99.99,,2013-07-21 04:53:00,
2013-07-21 01:00:00,71.0,71.0,-100.00,NW,305,2.0,11.0,98,0.57,,,-99.99,,2013-07-21 05:00:00,
2013-07-21 01:32:00,71.0,71.0,-100.00,NW,305,2.0,11.0,98,0.57,,,-99.99,,2013-07-21 05:32:00,
2013-07-21 01:42:00,71.0,71.0,-100.00,NW,305,2.0,11.0,98,0.57,,,-99.99,,2013-07-21 05:42:00,
2013-07-21 01:52:00,71.0,71.0,-100.00,NW,305,2.0,11.0,98,0.57,,,-99.99,,2013-07-21 05:52:00,
2013-07-21 02:00:00,71.0,70.0,-100.00,ESE,112,0.0,8.0,98,0.49,,,-99.99,,2013-07-21 06:00:00,
2013-07-21 02:32:00,71.0,70.0,-100.00,ESE,112,0.0,8.0,98,0.49,,,-99.99,,2013-07-21 06:32:00,
2013-07-21 02:43:00,71.0,70.0,-100.00,ESE,112,0.0,8.0,98,0.49,,,-99.99,,2013-07-21 06:43:00,
2013-07-21 02:53:00,71.0,70.0,-100.00,ESE,112,0.0,8.0,98,0.49,,,-99.99,,2013-07-21 06:53:00,
2013-07-21 03:00:00,70.0,70.0,-100.00,ENE,65,1.0,4.0,100,0.01,,,-99.99,,2013-07-21 07:00:00,
2013-07-21 03:32:00,70.0,70.0,-100.00,ENE,65,1.0,4.0,100,0.01,,,-99.99,,2013-07-21 07:32:00,
2013-07-21 03:43:00,70.0,70.0,-100.00,ENE,65,1.0,4.0,100,0.01,,,-99.99,,2013-07-21 07:43:00,
2013-07-21 03:53:00,70.0,70.0,-100.00,ENE,65,1.0,4.0,100,0.01,,,-99.99,,2013-07-21 07:53:00,
2013-07-21 05:00:00,70.0,70.0,-100.00,WNW,287,0.0,3.0,100,0.00,,,-99.99,,2013-07-21 09:00:00,
2013-07-21 05:32:00,70.0,70.0,-100.00,WNW,287,0.0,3.0,100,0.00,,,-99.99,,2013-07-21 09:32:00,
2013-07-21 05:42:00,70.0,70.0,-100.00,WNW,287,0.0,3.0,100,0.00,,,-99.99,,2013-07-21 09:42:00,
2013-07-21 05:52:00,70.0,70.0,-100.00,WNW,287,0.0,3.0,100,0.00,,,-99.99,,2013-07-21 09:52:00,
2013-07-21 06:00:00,71.0,70.0,-100.00,South,174,0.0,6.0,98,0.00,,,-99.99,,2013-07-21 10:00:00,
2013-07-21 06:32:00,71.0,70.0,-100.00,South,174,0.0,6.0,98,0.00,,,-99.99,,2013-07-21 10:32:00,
2013-07-21 06:43:00,71.0,70.0,-100.00,South,174,0.0,6.0,98,0.00,,,-99.99,,2013-07-21 10:43:00,
2013-07-21 06:52:00,71.0,70.0,-100.00,South,174,0.0,6.0,98,0.00,,,-99.99,,2013-07-21 10:52:00,
2013-07-21 07:00:00,72.0,70.0,-100.00,SSW,209,1.0,4.0,94,0.00,,,-99.99,,2013-07-21 11:00:00,
2013-07-21 07:33:00,72.0,70.0,-100.00,SSW,209,1.0,4.0,94,0.00,,,-99.99,,2013-07-21 11:33:00,
2013-07-21 07:43:00,72.0,70.0,-100.00,SSW,209,1.0,4.0,94,0.00,,,-99.99,,2013-07-21 11:43:00,
2013-07-21 07:52:00,72.0,70.0,-100.00,SSW,209,1.0,4.0,94,0.00,,,-99.99,,2013-07-21 11:52:00,
2013-07-21 08:00:00,77.0,73.0,-100.00,WNW,286,0.0,6.0,89,0.00,,,-99.99,,2013-07-21 12:00:00,
2013-07-21 08:32:00,77.0,73.0,-100.00,WNW,286,0.0,6.0,89,0.00,,,-99.99,,2013-07-21 12:32:00,
2013-07-21 08:43:00,77.0,73.0,-100.00,WNW,286,0.0,6.0,89,0.00,,,-99.99,,2013-07-21 12:43:00,
2013-07-21 08:53:00,77.0,73.0,-100.00,WNW,286,0.0,6.0,89,0.00,,,-99.99,,2013-07-21 12:53:00,
2013-07-21 09:00:00,79.0,74.0,-100.00,NW,322,0.0,10.0,84,0.00,,,-99.99,,2013-07-21 13:00:00,
2013-07-21 09:33:00,79.0,74.0,-100.00,NW,322,0.0,10.0,84,0.00,,,-99.99,,2013-07-21 13:33:00,
2013-07-21 09:43:00,79.0,74.0,-100.00,NW,322,0.0,10.0,84,0.00,,,-99.99,,2013-07-21 13:43:00,
2013-07-21 09:53:00,79.0,74.0,-100.00,NW,322,0.0,10.0,84,0.00,,,-99.99,,2013-07-21 13:53:00,
2013-07-21 10:00:00,82.0,75.0,-100.00,NW,324,2.0,8.0,79,0.00,,,-99.99,,2013-07-21 14:00:00,
2013-07-21 10:32:00,82.0,75.0,-100.00,NW,324,2.0,8.0,79,0.00,,,-99.99,,2013-07-21 14:32:00,
2013-07-21 10:43:00,82.0,75.0,-100.00,NW,324,2.0,8.0,79,0.00,,,-99.99,,2013-07-21 14:43:00,
2013-07-21 10:53:00,82.0,75.0,-100.00,NW,324,2.0,8.0,79,0.00,,,-99.99,,2013-07-21 14:53:00,
2013-07-21 11:00:00,85.0,72.0,-100.00,NW,323,1.0,8.0,66,0.00,,,-99.99,,2013-07-21 15:00:00,
2013-07-21 11:32:00,85.0,72.0,-100.00,NW,323,1.0,8.0,66,0.00,,,-99.99,,2013-07-21 15:32:00,
2013-07-21 11:43:00,85.0,72.0,-100.00,NW,323,1.0,8.0,66,0.00,,,-99.99,,2013-07-21 15:43:00,
2013-07-21 11:53:00,85.0,72.0,-100.00,NW,323,1.0,8.0,66,0.00,,,-99.99,,2013-07-21 15:53:00,
2013-07-21 12:00:00,86.0,72.0,-100.00,SW,229,3.0,10.0,62,0.00,,,-99.99,,2013-07-21 16:00:00,
2013-07-21 12:32:00,86.0,72.0,-100.00,SW,229,3.0,10.0,62,0.00,,,-99.99,,2013-07-21 16:32:00,
2013-07-21 12:43:00,86.0,72.0,-100.00,SW,229,3.0,10.0,62,0.00,,,-99.99,,2013-07-21 16:43:00,
2013-07-21 12:52:00,86.0,72.0,-100.00,SW,229,3.0,10.0,62,0.00,,,-99.99,,2013-07-21 16:52:00,
2013-07-21 13:00:00,86.0,69.0,-100.00,West,269,2.0,11.0,56,0.00,,,-99.99,,2013-07-21 17:00:00,
2013-07-21 13:33:00,86.0,69.0,-100.00,West,269,2.0,11.0,56,0.00,,,-99.99,,2013-07-21 17:33:00,
2013-07-21 13:43:00,86.0,69.0,-100.00,West,269,2.0,11.0,56,0.00,,,-99.99,,2013-07-21 17:43:00,
2013-07-21 13:53:00,86.0,69.0,-100.00,West,269,2.0,11.0,56,0.00,,,-99.99,,2013-07-21 17:53:00,
2013-07-21 14:00:00,88.0,68.0,-100.00,WNW,291,4.0,11.0,53,0.00,,,-99.99,,2013-07-21 18:00:00,
2013-07-21 14:32:00,88.0,68.0,-100.00,WNW,291,4.0,11.0,53,0.00,,,-99.99,,2013-07-21 18:32:00,
2013-07-21 14:43:00,88.0,68.0,-100.00,WNW,291,4.0,11.0,53,0.00,,,-99.99,,2013-07-21 18:43:00,
2013-07-21 14:52:00,88.0,68.0,-100.00,WNW,291,4.0,11.0,53,0.00,,,-99.99,,2013-07-21 18:52:00,
2013-07-21 15:00:00,89.0,69.0,-100.00,WSW,246,5.0,11.0,51,0.00,,,-99.99,,2013-07-21 19:00:00,
2013-07-21 15:32:00,89.0,69.0,-100.00,WSW,246,5.0,11.0,51,0.00,,,-99.99,,2013-07-21 19:32:00,
2013-07-21 15:42:00,89.0,69.0,-100.00,WSW,246,5.0,11.0,51,0.00,,,-99.99,,2013-07-21 19:42:00,
2013-07-21 15:52:00,89.0,69.0,-100.00,WSW,246,5.0,11.0,51,0.00,,,-99.99,,2013-07-21 19:52:00,
2013-07-21 16:00:00,87.0,74.0,-100.00,SSW,198,3.0,8.0,66,0.00,,,-99.99,,2013-07-21 20:00:00,
2013-07-21 16:32:00,87.0,74.0,-100.00,SSW,198,3.0,8.0,66,0.00,,,-99.99,,2013-07-21 20:32:00,
2013-07-21 16:43:00,87.0,74.0,-100.00,SSW,198,3.0,8.0,66,0.00,,,-99.99,,2013-07-21 20:43:00,
2013-07-21 16:52:00,87.0,74.0,-100.00,SSW,198,3.0,8.0,66,0.00,,,-99.99,,2013-07-21 20:52:00,
2013-07-21 17:00:00,85.0,73.0,-100.00,SSW,212,3.0,8.0,68,0.00,,,-99.99,,2013-07-21 21:00:00,
2013-07-21 17:32:00,85.0,73.0,-100.00,SSW,212,3.0,8.0,68,0.00,,,-99.99,,2013-07-21 21:32:00,
2013-07-21 17:43:00,85.0,73.0,-100.00,SSW,212,3.0,8.0,68,0.00,,,-99.99,,2013-07-21 21:43:00,
2013-07-21 17:52:00,85.0,73.0,-100.00,SSW,212,3.0,8.0,68,0.00,,,-99.99,,2013-07-21 21:52:00,
2013-07-21 18:00:00,80.0,73.0,-100.00,South,179,0.0,10.0,79,0.00,,,-99.99,,2013-07-21 22:00:00,
2013-07-21 18:32:00,80.0,73.0,-100.00,South,179,0.0,10.0,79,0.00,,,-99.99,,2013-07-21 22:32:00,
2013-07-21 18:43:00,80.0,73.0,-100.00,South,179,0.0,10.0,79,0.00,,,-99.99,,2013-07-21 22:43:00,
2013-07-21 18:52:00,80.0,73.0,-100.00,South,179,0.0,10.0,79,0.00,,,-99.99,,2013-07-21 22:52:00,
2013-07-21 19:00:00,78.0,73.0,-100.00,SW,218,2.0,7.0,83,0.00,,,-99.99,,2013-07-21 23:00:00,
2013-07-21 19:32:00,78.0,73.0,-100.00,SW,218,2.0,7.0,83,0.00,,,-99.99,,2013-07-21 23:32:00,
2013-07-21 19:43:00,78.0,73.0,-100.00,SW,218,2.0,7.0,83,0.00,,,-99.99,,2013-07-21 23:43:00,
2013-07-21 19:53:00,78.0,73.0,-100.00,SW,218,2.0,7.0,83,0.00,,,-99.99,,2013-07-21 23:53:00,
2013-07-21 20:00:00,76.0,70.0,-100.00,NNW,343,0.0,7.0,82,0.00,,,-99.99,,2013-07-22 00:00:00,
2013-07-21 20:32:00,76.0,70.0,-100.00,NNW,343,0.0,7.0,82,0.00,,,-99.99,,2013-07-22 00:32:00,
2013-07-21 20:42:00,76.0,70.0,-100.00,NNW,343,0.0,7.0,82,0.00,,,-99.99,,2013-07-22 00:42:00,
2013-07-21 20:53:00,76.0,70.0,-100.00,NNW,343,0.0,7.0,82,0.00,,,-99.99,,2013-07-22 00:53:00,
2013-07-21 21:00:00,75.0,71.0,-100.00,NE,55,5.0,11.0,87,0.00,,,-99.99,,2013-07-22 01:00:00,
2013-07-21 21:32:00,75.0,71.0,-100.00,NE,55,5.0,11.0,87,0.00,,,-99.99,,2013-07-22 01:32:00,
2013-07-21 21:42:00,75.0,71.0,-100.00,NE,55,5.0,11.0,87,0.00,,,-99.99,,2013-07-22 01:42:00,
2013-07-21 21:52:00,75.0,71.0,-100.00,NE,55,5.0,11.0,87,0.00,,,-99.99,,2013-07-22 01:52:00,
2013-07-21 22:00:00,71.0,69.0,-100.00,ESE,121,0.0,11.0,92,0.00,,,-99.99,,2013-07-22 02:00:00,
2013-07-21 22:32:00,71.0,69.0,-100.00,ESE,121,0.0,11.0,92,0.00,,,-99.99,,2013-07-22 02:32:00,
2013-07-21 22:43:00,71.0,69.0,-100.00,ESE,121,0.0,11.0,92,0.00,,,-99.99,,2013-07-22 02:43:00,
2013-07-21 22:52:00,71.0,69.0,-100.00,ESE,121,0.0,11.0,92,0.00,,,-99.99,,2013-07-22 02:52:00,
2013-07-21 23:00:00,71.0,70.0,-100.00,ENE,72,0.0,4.0,94,0.00,,,-99.99,,2013-07-22 03:00:00,
2013-07-21 23:33:00,71.0,70.0,-100.00,ENE,72,0.0,4.0,94,0.00,,,-99.99,,2013-07-22 03:33:00,
2013-07-21 23:43:00,71.0,70.0,-100.00,ENE,72,0.0,4.0,94,0.00,,,-99.99,,2013-07-22 03:43:00,
2013-07-21 23:53:00,71.0,70.0,-100.00,ENE,72,0.0,4.0,94,0.00,,,-99.99,,2013-07-22 03:53:00,